createdAt,value
2023-03-29T00:00:00.901Z,318.00
2023-03-29T00:04:02.408Z,317.00
2023-03-29T00:08:00.707Z,318.00
2023-03-29T00:12:00.662Z,318.00
2023-03-29T00:16:00.658Z,319.00
2023-03-29T00:20:00.620Z,323.00
2023-03-29T00:24:00.548Z,322.00
2023-03-29T00:28:00.566Z,318.00
2023-03-29T00:32:00.489Z,319.00
2023-03-29T00:36:00.448Z,317.00
2023-03-29T00:40:00.393Z,316.00
2023-03-29T00:44:00.402Z,314.00
2023-03-29T00:48:00.520Z,312.00
2023-03-29T00:52:00.366Z,314.00
2023-03-29T00:56:00.284Z,313.00
2023-03-29T01:00:00.288Z,311.00
2023-03-29T01:04:00.293Z,315.00
2023-03-29T01:08:00.226Z,316.00
2023-03-29T01:12:00.152Z,318.00
2023-03-29T01:16:00.204Z,319.00
2023-03-29T01:20:00.187Z,319.00
2023-03-29T01:24:00.129Z,318.00
2023-03-29T01:28:00.098Z,320.00
2023-03-29T01:32:00.091Z,313.00
2023-03-29T01:36:00.004Z,314.00
2023-03-29T01:39:59.998Z,317.00
2023-03-29T01:43:59.966Z,319.00
2023-03-29T01:47:59.931Z,317.00
2023-03-29T01:51:59.852Z,320.00
2023-03-29T01:55:59.844Z,322.00
2023-03-29T01:59:59.969Z,320.00
2023-03-29T02:03:59.710Z,317.00
2023-03-29T02:07:59.880Z,318.00
2023-03-29T02:11:59.772Z,316.00
2023-03-29T02:15:59.794Z,318.00
2023-03-29T02:19:59.687Z,317.00
2023-03-29T02:23:59.704Z,319.00
2023-03-29T02:27:59.642Z,316.00
2023-03-29T02:31:59.631Z,316.00
2023-03-29T02:35:59.627Z,316.00
2023-03-29T02:39:59.538Z,317.00
2023-03-29T02:43:59.532Z,315.00
2023-03-29T02:47:59.493Z,316.00
2023-03-29T02:51:59.623Z,311.00
2023-03-29T02:55:59.749Z,313.00
2023-03-29T02:59:59.879Z,312.00
2023-03-29T03:04:00.219Z,314.00
2023-03-29T03:08:00.283Z,313.00
2023-03-29T03:12:00.545Z,312.00
2023-03-29T03:16:00.546Z,309.00
2023-03-29T03:20:00.422Z,316.00
2023-03-29T03:24:00.382Z,315.00
2023-03-29T03:28:00.306Z,315.00
2023-03-29T03:32:00.349Z,316.00
2023-03-29T03:36:00.297Z,315.00
2023-03-29T03:40:00.226Z,316.00
2023-03-29T03:44:00.174Z,315.00
2023-03-29T03:48:00.240Z,314.00
2023-03-29T03:52:00.144Z,319.00
2023-03-29T03:56:00.163Z,320.00
2023-03-29T04:00:00.151Z,319.00
2023-03-29T04:04:00.434Z,319.00
2023-03-29T04:08:00.475Z,316.00
2023-03-29T04:12:00.545Z,316.00
2023-03-29T04:16:01.861Z,315.00
2023-03-29T04:20:00.790Z,318.00
2023-03-29T04:24:00.784Z,322.00
2023-03-29T04:28:00.860Z,320.00
2023-03-29T04:32:00.774Z,321.00
2023-03-29T04:36:00.859Z,323.00
2023-03-29T04:40:00.832Z,322.00
2023-03-29T04:44:00.827Z,316.00
2023-03-29T04:48:00.905Z,320.00
2023-03-29T04:52:00.899Z,321.00
2023-03-29T04:56:00.788Z,314.00
2023-03-29T05:00:00.801Z,314.00
2023-03-29T05:04:00.829Z,317.00
2023-03-29T05:08:00.829Z,314.00
2023-03-29T05:12:00.773Z,320.00
2023-03-29T05:16:00.827Z,318.00
2023-03-29T05:20:00.769Z,319.00
2023-03-29T05:28:00.790Z,323.00
2023-03-29T05:32:00.931Z,318.00
2023-03-29T05:36:00.888Z,333.00
2023-03-29T05:40:05.895Z,377.00
2023-03-29T05:44:01.865Z,480.00
2023-03-29T05:48:00.925Z,601.00
2023-03-29T05:52:00.873Z,671.00
2023-03-29T05:56:00.692Z,671.00
2023-03-29T06:00:00.688Z,699.00
2023-03-29T06:04:00.966Z,713.00
2023-03-29T06:08:00.670Z,722.00
2023-03-29T06:12:00.571Z,729.00
2023-03-29T06:16:00.552Z,748.00
2023-03-29T06:20:00.465Z,750.00
2023-03-29T06:24:00.519Z,752.00
2023-03-29T06:28:00.415Z,763.00
2023-03-29T06:32:00.346Z,769.00
2023-03-29T06:36:00.357Z,783.00
2023-03-29T06:40:00.306Z,787.00
2023-03-29T06:44:00.334Z,814.00
2023-03-29T06:48:00.352Z,838.00
2023-03-29T06:52:00.167Z,844.00
2023-03-29T06:56:00.187Z,840.00
2023-03-29T07:00:00.189Z,852.00
2023-03-29T07:04:00.158Z,856.00
2023-03-29T07:08:00.395Z,849.00
2023-03-29T07:12:00.664Z,839.00
2023-03-29T07:16:00.321Z,838.00
2023-03-29T07:20:00.201Z,835.00
2023-03-29T07:24:00.185Z,822.00
2023-03-29T07:28:00.211Z,824.00
2023-03-29T07:32:01.168Z,816.00
2023-03-29T07:36:00.288Z,816.00
2023-03-29T07:40:00.185Z,814.00
2023-03-29T07:44:01.401Z,837.00
2023-03-29T07:48:00.280Z,874.00
2023-03-29T07:51:59.881Z,905.00
2023-03-29T07:55:59.843Z,886.00
2023-03-29T07:59:59.828Z,966.00
2023-03-29T08:04:00.302Z,910.00
2023-03-29T08:07:59.769Z,912.00
2023-03-29T08:11:59.749Z,955.00
2023-03-29T08:16:00.239Z,916.00
2023-03-29T08:19:59.639Z,922.00
2023-03-29T08:23:59.655Z,828.00
2023-03-29T08:27:59.596Z,773.00
2023-03-29T08:31:59.528Z,755.00
2023-03-29T08:35:59.583Z,715.00
2023-03-29T08:39:59.748Z,625.00
2023-03-29T08:43:59.450Z,631.00
2023-03-29T08:47:59.348Z,575.00
2023-03-29T08:51:59.485Z,520.00
2023-03-29T08:56:11.057Z,634.00
2023-03-29T09:00:18.091Z,725.00
2023-03-29T09:04:18.066Z,705.00
2023-03-29T09:08:17.793Z,734.00
2023-03-29T09:12:18.039Z,772.00
2023-03-29T09:16:18.178Z,752.00
2023-03-29T09:20:17.666Z,755.00
2023-03-29T09:24:17.582Z,800.00
2023-03-29T09:28:17.582Z,811.00
2023-03-29T09:32:17.573Z,855.00
2023-03-29T09:36:17.623Z,904.00
2023-03-29T09:44:36.200Z,855.00
2023-03-29T09:48:35.997Z,825.00
2023-03-29T09:52:35.879Z,806.00
2023-03-29T09:56:42.078Z,780.00
2023-03-29T10:00:36.259Z,751.00
2023-03-29T10:04:35.792Z,746.00
2023-03-29T10:08:35.821Z,723.00
2023-03-29T10:12:35.738Z,716.00
2023-03-29T10:16:35.761Z,719.00
2023-03-29T10:20:37.037Z,717.00
2023-03-29T10:24:37.348Z,713.00
2023-03-29T10:28:35.752Z,712.00
2023-03-29T10:32:35.681Z,718.00
2023-03-29T10:36:36.128Z,722.00
2023-03-29T10:40:35.632Z,780.00
2023-03-29T10:44:35.765Z,766.00
2023-03-29T10:48:35.727Z,744.00
2023-03-29T10:52:35.829Z,733.00
2023-03-29T10:56:35.972Z,733.00
2023-03-29T11:00:36.203Z,717.00
2023-03-29T11:04:36.438Z,692.00
2023-03-29T11:08:36.719Z,708.00
2023-03-29T11:12:36.562Z,740.00
2023-03-29T11:16:36.562Z,773.00
2023-03-29T11:20:36.546Z,758.00
2023-03-29T11:24:36.775Z,740.00
2023-03-29T11:28:36.462Z,714.00
2023-03-29T11:32:36.485Z,662.00
2023-03-29T11:36:36.416Z,616.00
2023-03-29T11:40:36.391Z,587.00
2023-03-29T11:44:36.305Z,546.00
2023-03-29T11:48:36.299Z,519.00
2023-03-29T11:52:36.334Z,486.00
2023-03-29T11:56:36.565Z,467.00
2023-03-29T12:00:36.487Z,450.00
2023-03-29T12:04:36.431Z,447.00
2023-03-29T12:08:36.436Z,444.00
2023-03-29T12:12:36.407Z,436.00
2023-03-29T12:16:36.345Z,426.00
2023-03-29T12:20:36.294Z,424.00
2023-03-29T12:24:36.271Z,425.00
2023-03-29T12:28:36.348Z,423.00
2023-03-29T12:32:36.217Z,423.00
2023-03-29T12:36:36.144Z,427.00
2023-03-29T12:40:36.107Z,427.00
2023-03-29T12:44:36.060Z,420.00
2023-03-29T12:48:36.015Z,417.00
2023-03-29T12:52:36.000Z,417.00
2023-03-29T12:56:35.984Z,416.00
2023-03-29T13:28:35.850Z,407.00
2023-03-29T13:32:35.849Z,402.00
2023-03-29T13:36:35.821Z,404.00
2023-03-29T13:40:35.857Z,398.00
2023-03-29T13:44:35.905Z,401.00
2023-03-29T13:48:35.945Z,397.00
2023-03-29T13:52:35.897Z,392.00
2023-03-29T13:56:35.922Z,393.00
2023-03-29T14:00:35.993Z,395.00
2023-03-29T14:04:36.007Z,388.00
2023-03-29T14:08:36.130Z,389.00
2023-03-29T14:12:36.679Z,385.00
2023-03-29T14:16:36.315Z,382.00
2023-03-29T14:20:36.359Z,381.00
2023-03-29T14:24:36.494Z,386.00
2023-03-29T14:28:36.657Z,382.00
2023-03-29T14:32:36.809Z,386.00
2023-03-29T14:36:36.959Z,387.00
2023-03-29T14:40:37.081Z,380.00
2023-03-29T14:44:37.204Z,380.00
2023-03-29T14:48:37.392Z,387.00
2023-03-29T14:52:37.548Z,384.00
2023-03-29T14:56:37.743Z,380.00
2023-03-29T15:00:37.923Z,376.00
2023-03-29T15:03:08.937Z,479.00
2023-03-29T15:04:08.817Z,422.00
2023-03-29T15:05:08.854Z,411.00
2023-03-29T15:06:08.875Z,404.00
2023-03-29T15:07:08.853Z,402.00
2023-03-29T15:08:08.843Z,398.00
2023-03-29T15:09:08.840Z,400.00
2023-03-29T15:10:08.951Z,400.00
2023-03-29T15:11:08.935Z,401.00
2023-03-29T15:12:08.988Z,401.00
2023-03-29T15:13:09.031Z,403.00
2023-03-29T15:14:09.131Z,403.00
2023-03-29T15:15:09.135Z,402.00
2023-03-29T15:16:09.448Z,401.00
2023-03-29T15:17:09.241Z,402.00
2023-03-29T15:18:09.343Z,400.00
2023-03-29T15:19:09.374Z,397.00
2023-03-29T15:20:09.441Z,395.00
2023-03-29T15:21:09.499Z,394.00
2023-03-29T15:22:09.524Z,392.00
2023-03-29T15:23:09.554Z,388.00
2023-03-29T15:24:09.587Z,387.00
2023-03-29T15:25:09.634Z,385.00
2023-03-29T15:26:09.643Z,383.00
2023-03-29T15:27:09.730Z,380.00
2023-03-29T15:28:09.763Z,376.00
2023-03-29T15:29:09.791Z,373.00
2023-03-29T15:30:10.234Z,370.00
2023-03-29T15:31:09.881Z,368.00
2023-03-29T15:32:09.897Z,368.00
2023-03-29T15:33:09.959Z,367.00
2023-03-29T15:34:09.945Z,363.00
2023-03-29T15:35:10.008Z,360.00
2023-03-29T15:36:10.104Z,357.00
2023-03-29T15:37:10.067Z,357.00
2023-03-29T15:38:10.069Z,356.00
2023-03-29T15:39:10.076Z,357.00
2023-03-29T15:40:10.123Z,357.00
2023-03-29T15:41:10.075Z,356.00
2023-03-29T15:42:10.111Z,355.00
2023-03-29T15:43:10.142Z,355.00
2023-03-29T15:44:10.156Z,353.00
2023-03-29T15:45:10.213Z,349.00
2023-03-29T15:46:10.244Z,346.00
2023-03-29T15:47:10.450Z,343.00
2023-03-29T15:48:10.232Z,344.00
2023-03-29T15:49:10.261Z,345.00
2023-03-29T15:50:10.272Z,343.00
2023-03-29T15:51:10.328Z,342.00
2023-03-29T15:52:10.311Z,343.00
2023-03-29T15:53:15.039Z,341.00
2023-03-29T15:54:11.326Z,341.00
2023-03-29T15:55:10.350Z,343.00
2023-03-29T15:56:10.340Z,342.00
2023-03-29T15:57:10.404Z,343.00
2023-03-29T15:58:10.454Z,340.00
2023-03-29T15:59:10.381Z,340.00
2023-03-29T16:00:10.380Z,340.00
2023-03-29T16:01:10.410Z,337.00
2023-03-29T16:02:10.425Z,336.00
2023-03-29T16:03:10.417Z,337.00
2023-03-29T16:04:10.390Z,335.00
2023-03-29T16:05:10.398Z,335.00
2023-03-29T16:06:10.352Z,333.00
2023-03-29T16:07:10.415Z,333.00
2023-03-29T16:08:10.420Z,333.00
2023-03-29T16:09:10.370Z,332.00
2023-03-29T16:10:10.383Z,332.00
2023-03-29T16:11:10.359Z,332.00
2023-03-29T16:12:10.360Z,331.00
2023-03-29T16:13:10.340Z,330.00
2023-03-29T16:14:10.386Z,331.00
2023-03-29T16:15:10.422Z,333.00
2023-03-29T16:16:10.414Z,331.00
2023-03-29T16:17:10.437Z,333.00
2023-03-29T16:18:10.374Z,333.00
2023-03-29T16:19:10.356Z,331.00
2023-03-29T16:20:10.395Z,331.00
2023-03-29T16:21:12.216Z,333.00
2023-03-29T16:22:10.414Z,335.00
2023-03-29T16:23:10.362Z,336.00
2023-03-29T16:24:10.417Z,337.00
2023-03-29T16:25:10.384Z,339.00
2023-03-29T16:26:10.387Z,338.00
2023-03-29T16:27:10.457Z,338.00
2023-03-29T16:28:10.399Z,338.00
2023-03-29T16:29:10.399Z,337.00
2023-03-29T16:30:10.408Z,334.00
2023-03-29T16:31:10.419Z,333.00
2023-03-29T16:32:10.472Z,333.00
2023-03-29T16:33:10.476Z,330.00
2023-03-29T16:34:10.443Z,329.00
2023-03-29T16:35:10.388Z,330.00
2023-03-29T16:36:10.419Z,330.00
2023-03-29T16:37:10.436Z,329.00
2023-03-29T16:38:10.406Z,330.00
2023-03-29T16:39:10.424Z,332.00
2023-03-29T16:40:10.438Z,334.00
2023-03-29T16:41:10.496Z,335.00
2023-03-29T16:42:10.382Z,335.00
2023-03-29T16:43:10.443Z,335.00
2023-03-29T16:44:10.408Z,336.00
2023-03-29T16:45:10.459Z,338.00
2023-03-29T16:46:10.484Z,339.00
2023-03-29T16:47:10.429Z,336.00
2023-03-29T16:48:10.433Z,334.00
2023-03-29T16:49:10.435Z,334.00
2023-03-29T16:50:10.459Z,334.00
2023-03-29T16:51:10.506Z,334.00
2023-03-29T16:52:10.395Z,332.00
2023-03-29T16:53:10.431Z,333.00
2023-03-29T16:54:10.417Z,333.00
2023-03-29T16:55:10.366Z,334.00
2023-03-29T16:56:10.441Z,333.00
2023-03-29T16:57:10.525Z,332.00
2023-03-29T16:58:10.426Z,332.00
2023-03-29T16:59:10.408Z,332.00
2023-03-29T17:00:10.504Z,332.00
2023-03-29T17:01:10.443Z,334.00
2023-03-29T17:02:10.419Z,335.00
2023-03-29T17:03:10.522Z,335.00
2023-03-29T17:04:10.520Z,335.00
2023-03-29T17:05:10.439Z,336.00
2023-03-29T17:06:10.474Z,337.00
2023-03-29T17:07:10.453Z,337.00
2023-03-29T17:08:10.470Z,336.00
2023-03-29T17:09:10.478Z,336.00
2023-03-29T17:10:10.473Z,334.00
2023-03-29T17:11:10.551Z,337.00
2023-03-29T17:12:10.562Z,338.00
2023-03-29T17:13:10.548Z,337.00
2023-03-29T17:14:10.515Z,336.00
2023-03-29T17:15:10.514Z,336.00
2023-03-29T17:16:10.657Z,339.00
2023-03-29T17:17:10.584Z,341.00
2023-03-29T17:18:10.620Z,340.00
2023-03-29T17:19:10.556Z,340.00
2023-03-29T17:20:10.646Z,339.00
2023-03-29T17:21:10.625Z,338.00
2023-03-29T17:22:10.622Z,339.00
2023-03-29T17:23:10.649Z,337.00
2023-03-29T17:24:10.672Z,334.00
2023-03-29T17:25:10.734Z,333.00
2023-03-29T17:26:10.723Z,332.00
2023-03-29T17:27:10.693Z,331.00
2023-03-29T17:28:10.776Z,330.00
2023-03-29T17:29:10.808Z,332.00
2023-03-29T17:30:10.751Z,334.00
2023-03-29T17:31:10.839Z,333.00
2023-03-29T17:32:10.790Z,331.00
2023-03-29T17:33:10.897Z,331.00
2023-03-29T17:34:10.850Z,331.00
2023-03-29T17:35:10.886Z,332.00
2023-03-29T17:36:10.956Z,332.00
2023-03-29T17:37:10.911Z,332.00
2023-03-29T17:38:10.971Z,328.00
2023-03-29T17:39:10.979Z,328.00
2023-03-29T17:40:11.041Z,328.00
2023-03-29T17:41:11.057Z,328.00
2023-03-29T17:42:11.139Z,331.00
2023-03-29T17:43:11.097Z,331.00
2023-03-29T17:44:11.164Z,332.00
2023-03-29T17:45:11.174Z,336.00
2023-03-29T17:46:11.276Z,341.00
2023-03-29T17:47:11.197Z,341.00
2023-03-29T17:48:11.320Z,342.00
2023-03-29T17:49:11.283Z,343.00
2023-03-29T17:50:11.312Z,344.00
2023-03-29T17:51:11.327Z,341.00
2023-03-29T17:52:11.337Z,340.00
2023-03-29T17:53:11.352Z,340.00
2023-03-29T17:54:11.393Z,340.00
2023-03-29T17:55:11.449Z,338.00
2023-03-29T17:56:11.483Z,337.00
2023-03-29T17:57:11.528Z,337.00
2023-03-29T17:58:11.556Z,337.00
2023-03-29T17:59:11.575Z,339.00
2023-03-29T18:00:11.667Z,340.00
2023-03-29T18:01:11.767Z,338.00
2023-03-29T18:02:11.705Z,337.00
2023-03-29T18:03:11.796Z,336.00
2023-03-29T18:04:11.770Z,337.00
2023-03-29T18:05:11.843Z,337.00
2023-03-29T18:06:11.849Z,339.00
2023-03-29T18:07:11.923Z,339.00
2023-03-29T18:08:11.986Z,337.00
2023-03-29T18:09:12.004Z,337.00
2023-03-29T18:10:12.095Z,334.00
2023-03-29T18:11:12.170Z,333.00
2023-03-29T18:12:12.223Z,332.00
2023-03-29T18:13:12.195Z,330.00
2023-03-29T18:14:12.242Z,330.00
2023-03-29T18:15:12.396Z,329.00
2023-03-29T18:16:12.428Z,328.00
2023-03-29T18:17:12.532Z,324.00
2023-03-29T18:18:12.511Z,323.00
2023-03-29T18:19:12.554Z,325.00
2023-03-29T18:20:12.642Z,325.00
2023-03-29T18:21:12.710Z,326.00
2023-03-29T18:22:12.762Z,327.00
2023-03-29T18:23:12.813Z,328.00
2023-03-29T18:24:12.951Z,329.00
2023-03-29T18:25:12.914Z,329.00
2023-03-29T18:26:12.992Z,329.00
2023-03-29T18:27:13.019Z,327.00
2023-03-29T18:28:13.130Z,327.00
2023-03-29T18:29:13.159Z,329.00
2023-03-29T18:30:13.206Z,328.00
2023-03-29T18:31:13.279Z,327.00
2023-03-29T18:32:13.450Z,330.00
2023-03-29T18:33:13.452Z,330.00
2023-03-29T18:34:13.437Z,333.00
2023-03-29T18:35:13.503Z,332.00
2023-03-29T18:36:13.918Z,331.00
2023-03-29T18:37:13.643Z,330.00
2023-03-29T18:38:13.708Z,328.00
2023-03-29T18:39:13.772Z,327.00
2023-03-29T18:40:13.853Z,327.00
2023-03-29T18:41:13.890Z,327.00
2023-03-29T18:42:13.944Z,325.00
2023-03-29T18:43:13.980Z,325.00
2023-03-29T18:44:14.073Z,327.00
2023-03-29T18:45:14.096Z,327.00
2023-03-29T18:46:14.199Z,327.00
2023-03-29T18:47:14.215Z,327.00
2023-03-29T18:48:14.311Z,328.00
2023-03-29T18:49:14.332Z,329.00
2023-03-29T18:50:14.402Z,331.00
2023-03-29T18:51:14.476Z,331.00
2023-03-29T18:52:14.508Z,333.00
2023-03-29T18:53:14.666Z,332.00
2023-03-29T18:54:14.633Z,329.00
2023-03-29T18:55:14.681Z,327.00
2023-03-29T18:56:14.780Z,328.00
2023-03-29T18:57:14.899Z,328.00
2023-03-29T18:58:14.873Z,329.00
2023-03-29T18:59:14.944Z,328.00
2023-03-29T19:00:14.968Z,330.00
2023-03-29T19:01:15.133Z,332.00
2023-03-29T19:02:15.233Z,330.00
2023-03-29T19:03:15.237Z,331.00
2023-03-29T19:04:15.249Z,330.00
2023-03-29T19:05:15.293Z,329.00
2023-03-29T19:06:15.358Z,329.00
2023-03-29T19:07:15.447Z,331.00
2023-03-29T19:08:15.520Z,331.00
2023-03-29T19:09:15.558Z,331.00
2023-03-29T19:10:15.628Z,330.00
2023-03-29T19:11:15.752Z,332.00
2023-03-29T19:12:15.767Z,332.00
2023-03-29T19:13:15.779Z,331.00
2023-03-29T19:14:15.817Z,328.00
2023-03-29T19:15:15.906Z,328.00
2023-03-29T19:16:16.010Z,329.00
2023-03-29T19:17:16.065Z,325.00
2023-03-29T19:18:16.136Z,326.00
2023-03-29T19:19:16.157Z,324.00
2023-03-29T19:20:16.207Z,326.00
2023-03-29T19:21:16.277Z,325.00
2023-03-29T19:22:16.336Z,327.00
2023-03-29T19:23:16.401Z,327.00
2023-03-29T19:24:16.462Z,330.00
2023-03-29T19:25:16.478Z,331.00
2023-03-29T19:26:16.557Z,330.00
2023-03-29T19:27:16.596Z,331.00
2023-03-29T19:28:16.658Z,333.00
2023-03-29T19:29:16.742Z,334.00
2023-03-29T19:30:16.749Z,332.00
2023-03-29T19:31:16.858Z,333.00
2023-03-29T19:32:16.869Z,330.00
2023-03-29T19:33:17.886Z,328.00
2023-03-29T19:34:17.042Z,326.00
2023-03-29T19:35:17.109Z,326.00
2023-03-29T19:36:17.215Z,326.00
2023-03-29T19:37:17.173Z,325.00
2023-03-29T19:38:17.265Z,327.00
2023-03-29T19:39:17.323Z,329.00
2023-03-29T19:40:17.332Z,329.00
2023-03-29T19:41:17.439Z,331.00
2023-03-29T19:42:17.430Z,330.00
2023-03-29T19:43:17.484Z,330.00
2023-03-29T19:44:17.930Z,331.00
2023-03-29T19:45:17.608Z,330.00
2023-03-29T19:46:17.680Z,331.00
2023-03-29T19:47:17.684Z,331.00
2023-03-29T19:49:17.736Z,331.00
2023-03-29T19:50:17.749Z,330.00
2023-03-29T19:51:17.752Z,331.00
2023-03-29T19:52:17.728Z,331.00
2023-03-29T19:53:17.717Z,331.00
2023-03-29T19:54:17.723Z,332.00
2023-03-29T19:55:17.705Z,330.00
2023-03-29T19:56:17.710Z,331.00
2023-03-29T19:57:17.711Z,332.00
2023-03-29T19:58:17.710Z,329.00
2023-03-29T19:59:17.692Z,328.00
2023-03-29T20:00:17.654Z,330.00
2023-03-29T20:01:17.658Z,330.00
2023-03-29T20:02:17.714Z,330.00
2023-03-29T20:03:17.649Z,332.00
2023-03-29T20:04:17.938Z,333.00
2023-03-29T20:05:17.633Z,332.00
2023-03-29T20:06:17.604Z,332.00
2023-03-29T20:07:17.622Z,331.00
2023-03-29T20:08:17.611Z,332.00
2023-03-29T20:09:17.596Z,329.00
2023-03-29T20:10:17.626Z,330.00
2023-03-29T20:11:17.574Z,330.00
2023-03-29T20:12:17.580Z,331.00
2023-03-29T20:13:31.276Z,330.00
2023-03-29T20:14:18.594Z,329.00
2023-03-29T20:15:17.577Z,329.00
2023-03-29T20:16:17.611Z,330.00
2023-03-29T20:17:17.540Z,328.00
2023-03-29T20:18:17.549Z,328.00
2023-03-29T20:19:17.635Z,327.00
2023-03-29T20:20:17.544Z,329.00
2023-03-29T20:21:17.538Z,330.00
2023-03-29T20:22:17.564Z,329.00
2023-03-29T20:23:17.553Z,329.00
2023-03-29T20:24:17.561Z,328.00
2023-03-29T20:25:17.595Z,329.00
2023-03-29T20:26:17.691Z,329.00
2023-03-29T20:27:17.600Z,327.00
2023-03-29T20:28:17.616Z,327.00
2023-03-29T20:29:17.659Z,326.00
2023-03-29T20:30:17.677Z,325.00
2023-03-29T20:31:17.686Z,326.00
2023-03-29T20:32:17.668Z,323.00
2023-03-29T20:33:17.670Z,323.00
2023-03-29T20:34:17.658Z,324.00
2023-03-29T20:35:17.642Z,326.00
2023-03-29T20:36:17.866Z,326.00
2023-03-29T20:37:17.633Z,326.00
2023-03-29T20:38:17.660Z,328.00
2023-03-29T20:39:17.658Z,328.00
2023-03-29T20:40:17.625Z,331.00
2023-03-29T20:41:17.667Z,330.00
2023-03-29T20:42:17.685Z,331.00
2023-03-29T20:43:17.638Z,332.00
2023-03-29T20:44:17.625Z,332.00
2023-03-29T20:45:17.649Z,329.00
2023-03-29T20:46:17.703Z,333.00
2023-03-29T20:47:17.641Z,336.00
2023-03-29T20:48:17.634Z,336.00
2023-03-29T20:49:17.655Z,335.00
2023-03-29T20:50:17.633Z,334.00
2023-03-29T20:51:17.654Z,334.00
2023-03-29T20:52:17.652Z,335.00
2023-03-29T20:53:17.656Z,336.00
2023-03-29T20:54:17.620Z,335.00
2023-03-29T20:55:17.622Z,336.00
2023-03-29T20:56:17.599Z,337.00
2023-03-29T20:57:17.670Z,337.00
2023-03-29T20:58:17.588Z,336.00
2023-03-29T20:59:17.584Z,334.00
2023-03-29T21:00:17.614Z,333.00
2023-03-29T21:01:17.603Z,333.00
2023-03-29T21:02:17.660Z,334.00
2023-03-29T21:03:17.702Z,334.00
2023-03-29T21:04:17.603Z,331.00
2023-03-29T21:05:17.586Z,331.00
2023-03-29T21:06:17.582Z,331.00
2023-03-29T21:07:17.582Z,331.00
2023-03-29T21:08:17.610Z,331.00
2023-03-29T21:09:17.612Z,332.00
2023-03-29T21:10:17.606Z,330.00
2023-03-29T21:11:17.588Z,329.00
2023-03-29T21:12:17.698Z,328.00
2023-03-29T21:13:17.585Z,328.00
2023-03-29T21:14:17.604Z,328.00
2023-03-29T21:15:17.565Z,327.00
2023-03-29T21:16:17.648Z,328.00
2023-03-29T21:17:17.630Z,327.00
2023-03-29T21:18:17.575Z,325.00
2023-03-29T21:19:17.581Z,324.00
2023-03-29T21:20:17.587Z,324.00
2023-03-29T21:21:17.604Z,326.00
2023-03-29T21:22:17.600Z,327.00
2023-03-29T21:23:17.612Z,328.00
2023-03-29T21:24:17.610Z,328.00
2023-03-29T21:25:17.633Z,324.00
2023-03-29T21:26:17.559Z,324.00
2023-03-29T21:27:17.591Z,323.00
2023-03-29T21:28:17.587Z,321.00
2023-03-29T21:29:17.590Z,322.00
2023-03-29T21:30:17.555Z,323.00
2023-03-29T21:31:17.645Z,323.00
2023-03-29T21:32:17.572Z,323.00
2023-03-29T21:33:17.577Z,324.00
2023-03-29T21:34:17.578Z,326.00
2023-03-29T21:35:17.930Z,327.00
2023-03-29T21:36:17.666Z,330.00
2023-03-29T21:37:17.545Z,329.00
2023-03-29T21:38:17.564Z,328.00
2023-03-29T21:39:17.559Z,325.00
2023-03-29T21:40:17.570Z,325.00
2023-03-29T21:41:17.563Z,325.00
2023-03-29T21:42:17.579Z,328.00
2023-03-29T21:43:17.579Z,326.00
2023-03-29T21:44:17.590Z,325.00
2023-03-29T21:45:17.599Z,324.00
2023-03-29T21:46:17.650Z,326.00
2023-03-29T21:47:17.631Z,324.00
2023-03-29T21:48:17.642Z,327.00
2023-03-29T21:49:17.634Z,330.00
2023-03-29T21:50:17.633Z,332.00
2023-03-29T21:51:17.647Z,336.00
2023-03-29T21:52:17.665Z,338.00
2023-03-29T21:53:17.650Z,338.00
2023-03-29T21:54:17.655Z,337.00
2023-03-29T21:55:17.665Z,333.00
2023-03-29T21:56:17.680Z,332.00
2023-03-29T21:57:17.753Z,332.00
2023-03-29T21:58:17.686Z,331.00
2023-03-29T21:59:17.690Z,332.00
2023-03-29T22:00:24.472Z,332.00
2023-03-29T22:01:18.405Z,330.00
2023-03-29T22:02:17.734Z,331.00
2023-03-29T22:03:17.892Z,333.00
2023-03-29T22:04:29.181Z,332.00
2023-03-29T22:05:18.637Z,331.00
2023-03-29T22:06:17.681Z,330.00
2023-03-29T22:07:17.641Z,328.00
2023-03-29T22:08:17.671Z,327.00
2023-03-29T22:09:17.601Z,327.00
2023-03-29T22:10:17.617Z,329.00
2023-03-29T22:11:17.618Z,330.00
2023-03-29T22:12:17.629Z,335.00
2023-03-29T22:13:17.637Z,335.00
2023-03-29T22:14:17.587Z,335.00
2023-03-29T22:15:17.557Z,337.00
2023-03-29T22:16:17.652Z,339.00
2023-03-29T22:17:17.553Z,340.00
2023-03-29T22:18:17.572Z,338.00
2023-03-29T22:19:17.576Z,340.00
2023-03-29T22:20:17.560Z,340.00
2023-03-29T22:21:17.619Z,337.00
2023-03-29T22:22:17.597Z,335.00
2023-03-29T22:23:17.600Z,333.00
2023-03-29T22:24:17.604Z,331.00
2023-03-29T22:25:17.635Z,333.00
2023-03-29T22:26:17.628Z,332.00
2023-03-29T22:27:17.633Z,331.00
2023-03-29T22:28:17.676Z,333.00
2023-03-29T22:29:17.642Z,333.00
2023-03-29T22:30:17.710Z,333.00
2023-03-29T22:31:17.726Z,334.00
2023-03-29T22:32:17.937Z,334.00
2023-03-29T22:33:17.727Z,336.00
2023-03-29T22:34:17.713Z,332.00
2023-03-29T22:35:17.731Z,333.00
2023-03-29T22:36:17.825Z,331.00
2023-03-29T22:37:17.755Z,333.00
2023-03-29T22:38:17.765Z,335.00
2023-03-29T22:39:17.777Z,335.00
2023-03-29T22:40:17.825Z,333.00
2023-03-29T22:41:17.825Z,334.00
2023-03-29T22:42:17.791Z,334.00
2023-03-29T22:43:17.836Z,333.00
2023-03-29T22:44:17.844Z,335.00
2023-03-29T22:45:17.864Z,335.00
2023-03-29T22:46:17.919Z,336.00
2023-03-29T22:47:17.882Z,335.00
2023-03-29T22:48:17.870Z,333.00
2023-03-29T22:49:17.904Z,332.00
2023-03-29T22:50:17.946Z,329.00
2023-03-29T22:51:17.902Z,329.00
2023-03-29T22:52:17.949Z,330.00
2023-03-29T22:53:17.949Z,330.00
2023-03-29T22:54:17.960Z,330.00
2023-03-29T22:55:17.987Z,330.00
2023-03-29T22:56:18.037Z,330.00
2023-03-29T22:57:18.068Z,331.00
2023-03-29T22:58:18.037Z,331.00
2023-03-29T22:59:18.045Z,331.00
2023-03-29T23:00:18.054Z,332.00
2023-03-29T23:01:18.139Z,332.00
2023-03-29T23:02:18.065Z,331.00
2023-03-29T23:03:18.133Z,331.00
2023-03-29T23:04:18.187Z,329.00
2023-03-29T23:05:18.493Z,327.00
2023-03-29T23:06:18.143Z,326.00
2023-03-29T23:07:18.180Z,326.00
2023-03-29T23:08:18.187Z,326.00
2023-03-29T23:09:18.211Z,326.00
2023-03-29T23:10:18.230Z,328.00
2023-03-29T23:11:18.253Z,327.00
2023-03-29T23:12:18.231Z,327.00
2023-03-29T23:13:18.235Z,328.00
2023-03-29T23:14:18.299Z,332.00
2023-03-29T23:15:18.315Z,331.00
2023-03-29T23:16:18.375Z,331.00
2023-03-29T23:17:18.329Z,333.00
2023-03-29T23:18:18.348Z,333.00
2023-03-29T23:19:18.427Z,334.00
2023-03-29T23:20:18.392Z,332.00
2023-03-29T23:21:18.445Z,330.00
2023-03-29T23:22:18.418Z,327.00
2023-03-29T23:23:18.421Z,327.00
2023-03-29T23:24:19.304Z,328.00
2023-03-29T23:25:18.484Z,329.00
2023-03-29T23:26:18.536Z,327.00
2023-03-29T23:27:18.539Z,327.00
2023-03-29T23:28:18.519Z,328.00
2023-03-29T23:29:18.557Z,329.00
2023-03-29T23:30:18.552Z,329.00
2023-03-29T23:31:18.755Z,330.00
2023-03-29T23:32:18.610Z,328.00
2023-03-29T23:33:18.688Z,327.00
2023-03-29T23:34:18.691Z,326.00
2023-03-29T23:35:18.710Z,326.00
2023-03-29T23:36:18.770Z,326.00
2023-03-29T23:37:18.760Z,325.00
2023-03-29T23:38:18.837Z,326.00
2023-03-29T23:39:18.825Z,327.00
2023-03-29T23:40:18.826Z,330.00
2023-03-29T23:41:18.896Z,331.00
2023-03-29T23:42:18.876Z,332.00
2023-03-29T23:43:18.906Z,330.00
2023-03-29T23:44:18.922Z,330.00
2023-03-29T23:45:18.965Z,330.00
2023-03-29T23:46:19.078Z,330.00
2023-03-29T23:47:19.071Z,331.00
2023-03-29T23:48:18.999Z,330.00
2023-03-29T23:49:19.060Z,329.00
2023-03-29T23:50:19.051Z,329.00
2023-03-29T23:51:19.114Z,328.00
2023-03-29T23:52:19.125Z,327.00
2023-03-29T23:53:19.122Z,331.00
2023-03-29T23:54:19.138Z,330.00
2023-03-29T23:55:19.181Z,330.00